sensor_id;sensor_type;location;lat;lon;timestamp;temperature;humidity
25918;DHT22;13899;51.174;4.456;2022-12-29T00:02:15;10.80;99.90
25918;DHT22;13899;51.174;4.456;2022-12-29T00:04:41;10.90;99.90
25918;DHT22;13899;51.174;4.456;2022-12-29T00:07:07;11.00;99.90
25918;DHT22;13899;51.174;4.456;2022-12-29T00:09:34;11.10;99.90
25918;DHT22;13899;51.174;4.456;2022-12-29T00:12:00;11.10;99.90
25918;DHT22;13899;51.174;4.456;2022-12-29T00:14:26;11.20;99.90
25918;DHT22;13899;51.174;4.456;2022-12-29T00:17:11;11.20;99.90
25918;DHT22;13899;51.174;4.456;2022-12-29T00:19:36;11.20;99.90
25918;DHT22;13899;51.174;4.456;2022-12-29T00:22:20;11.30;99.90
25918;DHT22;13899;51.174;4.456;2022-12-29T00:25:15;11.30;99.90
25918;DHT22;13899;51.174;4.456;2022-12-29T00:27:59;11.30;99.90
25918;DHT22;13899;51.174;4.456;2022-12-29T00:30:43;11.40;99.90
25918;DHT22;13899;51.174;4.456;2022-12-29T00:33:30;11.50;99.90
25918;DHT22;13899;51.174;4.456;2022-12-29T00:36:19;11.60;99.90
25918;DHT22;13899;51.174;4.456;2022-12-29T00:38:57;11.50;99.90
25918;DHT22;13899;51.174;4.456;2022-12-29T00:41:43;11.60;99.90
25918;DHT22;13899;51.174;4.456;2022-12-29T00:44:27;11.60;99.90
25918;DHT22;13899;51.174;4.456;2022-12-29T00:46:53;11.70;99.90
25918;DHT22;13899;51.174;4.456;2022-12-29T00:49:18;11.60;99.90
25918;DHT22;13899;51.174;4.456;2022-12-29T00:52:09;11.60;99.90
25918;DHT22;13899;51.174;4.456;2022-12-29T00:54:36;11.70;99.90
25918;DHT22;13899;51.174;4.456;2022-12-29T00:57:03;11.70;99.90
25918;DHT22;13899;51.174;4.456;2022-12-29T00:59:29;11.80;99.90
25918;DHT22;13899;51.174;4.456;2022-12-29T01:01:55;11.90;99.90
25918;DHT22;13899;51.174;4.456;2022-12-29T01:04:22;11.80;99.90
25918;DHT22;13899;51.174;4.456;2022-12-29T01:06:49;12.00;99.90
25918;DHT22;13899;51.174;4.456;2022-12-29T01:09:15;11.90;99.90
25918;DHT22;13899;51.174;4.456;2022-12-29T01:11:59;11.90;99.90
25918;DHT22;13899;51.174;4.456;2022-12-29T01:14:26;11.80;99.90
25918;DHT22;13899;51.174;4.456;2022-12-29T01:16:52;11.80;99.90
25918;DHT22;13899;51.174;4.456;2022-12-29T01:19:19;11.80;99.90
25918;DHT22;13899;51.174;4.456;2022-12-29T01:21:46;11.70;99.90
25918;DHT22;13899;51.174;4.456;2022-12-29T01:24:13;11.80;99.90
25918;DHT22;13899;51.174;4.456;2022-12-29T01:26:39;11.80;99.90
25918;DHT22;13899;51.174;4.456;2022-12-29T01:29:04;11.90;99.90
25918;DHT22;13899;51.174;4.456;2022-12-29T01:31:30;12.00;99.90
25918;DHT22;13899;51.174;4.456;2022-12-29T01:33:56;11.90;99.90
25918;DHT22;13899;51.174;4.456;2022-12-29T01:36:21;11.90;99.90
25918;DHT22;13899;51.174;4.456;2022-12-29T01:38:47;12.00;99.90
25918;DHT22;13899;51.174;4.456;2022-12-29T01:41:14;11.90;99.90
25918;DHT22;13899;51.174;4.456;2022-12-29T01:46:16;11.90;99.90
25918;DHT22;13899;51.174;4.456;2022-12-29T01:48:46;11.80;99.90
25918;DHT22;13899;51.174;4.456;2022-12-29T01:51:13;11.80;99.90
25918;DHT22;13899;51.174;4.456;2022-12-29T01:53:39;11.70;99.90
25918;DHT22;13899;51.174;4.456;2022-12-29T01:56:07;11.60;99.90
25918;DHT22;13899;51.174;4.456;2022-12-29T01:58:40;11.50;99.90
25918;DHT22;13899;51.174;4.456;2022-12-29T02:01:07;11.30;99.90
25918;DHT22;13899;51.174;4.456;2022-12-29T02:03:33;11.30;99.90
25918;DHT22;13899;51.174;4.456;2022-12-29T02:06:12;11.30;99.90
25918;DHT22;13899;51.174;4.456;2022-12-29T02:08:41;11.30;99.90
25918;DHT22;13899;51.174;4.456;2022-12-29T02:11:07;11.30;99.90
25918;DHT22;13899;51.174;4.456;2022-12-29T02:13:33;11.30;99.90
25918;DHT22;13899;51.174;4.456;2022-12-29T02:21:45;11.30;99.90
25918;DHT22;13899;51.174;4.456;2022-12-29T02:24:37;11.20;99.90
25918;DHT22;13899;51.174;4.456;2022-12-29T02:33:21;11.20;99.90
25918;DHT22;13899;51.174;4.456;2022-12-29T02:35:56;11.10;99.90
25918;DHT22;13899;51.174;4.456;2022-12-29T02:38:48;11.20;99.90
25918;DHT22;13899;51.174;4.456;2022-12-29T02:41:31;11.10;99.90
25918;DHT22;13899;51.174;4.456;2022-12-29T02:44:14;11.20;99.90
25918;DHT22;13899;51.174;4.456;2022-12-29T02:49:38;11.20;99.90
25918;DHT22;13899;51.174;4.456;2022-12-29T02:52:18;11.20;99.90
25918;DHT22;13899;51.174;4.456;2022-12-29T02:54:44;11.20;99.90
25918;DHT22;13899;51.174;4.456;2022-12-29T03:00:11;11.20;99.90
25918;DHT22;13899;51.174;4.456;2022-12-29T03:08:32;11.00;99.90
25918;DHT22;13899;51.174;4.456;2022-12-29T03:11:00;11.00;99.90
25918;DHT22;13899;51.174;4.456;2022-12-29T03:13:42;11.00;99.90
25918;DHT22;13899;51.174;4.456;2022-12-29T03:19:36;11.00;99.90
25918;DHT22;13899;51.174;4.456;2022-12-29T03:22:08;11.00;99.90
25918;DHT22;13899;51.174;4.456;2022-12-29T03:28:18;11.10;99.90
25918;DHT22;13899;51.174;4.456;2022-12-29T03:30:45;11.10;99.90
25918;DHT22;13899;51.174;4.456;2022-12-29T03:33:15;11.20;99.90
25918;DHT22;13899;51.174;4.456;2022-12-29T03:35:44;11.20;99.90
25918;DHT22;13899;51.174;4.456;2022-12-29T03:40:55;11.10;99.90
25918;DHT22;13899;51.174;4.456;2022-12-29T03:43:21;11.10;99.90
25918;DHT22;13899;51.174;4.456;2022-12-29T03:45:47;11.20;99.90
25918;DHT22;13899;51.174;4.456;2022-12-29T03:48:13;11.20;99.90
25918;DHT22;13899;51.174;4.456;2022-12-29T03:50:38;11.10;99.90
25918;DHT22;13899;51.174;4.456;2022-12-29T03:53:04;11.20;99.90
25918;DHT22;13899;51.174;4.456;2022-12-29T03:55:29;11.20;99.90
25918;DHT22;13899;51.174;4.456;2022-12-29T03:57:55;11.20;99.90
25918;DHT22;13899;51.174;4.456;2022-12-29T04:00:20;11.10;99.90
25918;DHT22;13899;51.174;4.456;2022-12-29T04:02:46;11.10;99.90
25918;DHT22;13899;51.174;4.456;2022-12-29T04:05:12;11.10;99.90
25918;DHT22;13899;51.174;4.456;2022-12-29T04:07:37;11.00;99.90
25918;DHT22;13899;51.174;4.456;2022-12-29T04:10:03;10.90;99.90
25918;DHT22;13899;51.174;4.456;2022-12-29T04:12:29;10.80;99.90
25918;DHT22;13899;51.174;4.456;2022-12-29T04:14:54;10.80;99.90
25918;DHT22;13899;51.174;4.456;2022-12-29T04:17:20;10.80;99.90
25918;DHT22;13899;51.174;4.456;2022-12-29T04:19:46;10.70;99.90
25918;DHT22;13899;51.174;4.456;2022-12-29T04:22:11;10.70;99.90
25918;DHT22;13899;51.174;4.456;2022-12-29T04:24:37;10.60;99.90
25918;DHT22;13899;51.174;4.456;2022-12-29T04:27:03;10.70;99.90
25918;DHT22;13899;51.174;4.456;2022-12-29T04:29:28;10.70;99.90
25918;DHT22;13899;51.174;4.456;2022-12-29T04:31:54;10.60;99.90
25918;DHT22;13899;51.174;4.456;2022-12-29T04:34:19;10.60;99.90
25918;DHT22;13899;51.174;4.456;2022-12-29T04:36:45;10.70;99.90
25918;DHT22;13899;51.174;4.456;2022-12-29T04:39:11;10.70;99.90
25918;DHT22;13899;51.174;4.456;2022-12-29T04:41:36;10.70;99.90
25918;DHT22;13899;51.174;4.456;2022-12-29T04:44:02;10.80;99.90
25918;DHT22;13899;51.174;4.456;2022-12-29T04:46:28;10.80;99.90
25918;DHT22;13899;51.174;4.456;2022-12-29T04:48:53;10.80;99.90
25918;DHT22;13899;51.174;4.456;2022-12-29T04:51:19;10.80;99.90
25918;DHT22;13899;51.174;4.456;2022-12-29T04:53:44;10.90;99.90
25918;DHT22;13899;51.174;4.456;2022-12-29T04:56:10;10.80;99.90
25918;DHT22;13899;51.174;4.456;2022-12-29T04:58:36;10.90;99.90
25918;DHT22;13899;51.174;4.456;2022-12-29T05:01:02;11.00;99.90
25918;DHT22;13899;51.174;4.456;2022-12-29T05:03:28;11.00;99.90
25918;DHT22;13899;51.174;4.456;2022-12-29T05:05:57;11.00;99.90
25918;DHT22;13899;51.174;4.456;2022-12-29T05:08:23;11.00;99.90
25918;DHT22;13899;51.174;4.456;2022-12-29T05:10:50;11.00;99.90
25918;DHT22;13899;51.174;4.456;2022-12-29T05:13:17;11.10;99.90
25918;DHT22;13899;51.174;4.456;2022-12-29T05:15:49;11.10;99.90
25918;DHT22;13899;51.174;4.456;2022-12-29T05:18:15;11.00;99.90
25918;DHT22;13899;51.174;4.456;2022-12-29T05:20:41;11.10;99.90
25918;DHT22;13899;51.174;4.456;2022-12-29T05:23:07;11.20;99.90
25918;DHT22;13899;51.174;4.456;2022-12-29T05:25:33;11.10;99.90
25918;DHT22;13899;51.174;4.456;2022-12-29T05:27:58;11.00;99.90
25918;DHT22;13899;51.174;4.456;2022-12-29T05:30:24;10.90;99.90
25918;DHT22;13899;51.174;4.456;2022-12-29T05:32:49;11.00;99.90
25918;DHT22;13899;51.174;4.456;2022-12-29T05:35:15;10.90;99.90
25918;DHT22;13899;51.174;4.456;2022-12-29T05:37:41;11.00;99.90
25918;DHT22;13899;51.174;4.456;2022-12-29T05:40:07;11.00;99.90
25918;DHT22;13899;51.174;4.456;2022-12-29T05:42:33;10.90;99.90
25918;DHT22;13899;51.174;4.456;2022-12-29T05:44:58;10.90;99.90
25918;DHT22;13899;51.174;4.456;2022-12-29T05:47:24;11.00;99.90
25918;DHT22;13899;51.174;4.456;2022-12-29T05:49:49;11.00;99.90
25918;DHT22;13899;51.174;4.456;2022-12-29T05:52:15;10.90;99.90
25918;DHT22;13899;51.174;4.456;2022-12-29T05:54:40;11.00;99.90
25918;DHT22;13899;51.174;4.456;2022-12-29T05:57:06;10.90;99.90
25918;DHT22;13899;51.174;4.456;2022-12-29T05:59:32;10.90;99.90
25918;DHT22;13899;51.174;4.456;2022-12-29T06:01:57;10.90;99.90
25918;DHT22;13899;51.174;4.456;2022-12-29T06:04:23;10.90;99.90
25918;DHT22;13899;51.174;4.456;2022-12-29T06:06:48;10.90;99.90
25918;DHT22;13899;51.174;4.456;2022-12-29T06:09:14;10.90;99.90
25918;DHT22;13899;51.174;4.456;2022-12-29T06:11:40;11.00;99.90
25918;DHT22;13899;51.174;4.456;2022-12-29T06:14:05;11.00;99.90
25918;DHT22;13899;51.174;4.456;2022-12-29T06:16:31;11.10;99.90
25918;DHT22;13899;51.174;4.456;2022-12-29T06:18:56;11.10;99.90
25918;DHT22;13899;51.174;4.456;2022-12-29T06:21:22;11.10;99.90
25918;DHT22;13899;51.174;4.456;2022-12-29T06:23:48;11.10;99.90
25918;DHT22;13899;51.174;4.456;2022-12-29T06:26:13;11.00;99.90
25918;DHT22;13899;51.174;4.456;2022-12-29T06:28:39;11.00;99.90
25918;DHT22;13899;51.174;4.456;2022-12-29T06:31:04;11.10;99.90
25918;DHT22;13899;51.174;4.456;2022-12-29T06:33:30;11.10;99.90
25918;DHT22;13899;51.174;4.456;2022-12-29T06:35:56;11.10;99.90
25918;DHT22;13899;51.174;4.456;2022-12-29T06:38:21;11.10;99.90
25918;DHT22;13899;51.174;4.456;2022-12-29T06:40:47;11.10;99.90
25918;DHT22;13899;51.174;4.456;2022-12-29T06:43:12;11.10;99.90
25918;DHT22;13899;51.174;4.456;2022-12-29T06:45:39;11.00;99.90
25918;DHT22;13899;51.174;4.456;2022-12-29T06:48:05;11.10;99.90
25918;DHT22;13899;51.174;4.456;2022-12-29T06:50:31;11.10;99.90
25918;DHT22;13899;51.174;4.456;2022-12-29T06:52:57;11.10;99.90
25918;DHT22;13899;51.174;4.456;2022-12-29T06:55:22;11.10;99.90
25918;DHT22;13899;51.174;4.456;2022-12-29T06:57:48;11.10;99.90
25918;DHT22;13899;51.174;4.456;2022-12-29T07:00:14;11.00;99.90
25918;DHT22;13899;51.174;4.456;2022-12-29T07:02:40;11.00;99.90
25918;DHT22;13899;51.174;4.456;2022-12-29T07:05:05;11.00;99.90
25918;DHT22;13899;51.174;4.456;2022-12-29T07:07:32;11.00;99.90
25918;DHT22;13899;51.174;4.456;2022-12-29T07:09:58;11.10;99.90
25918;DHT22;13899;51.174;4.456;2022-12-29T07:12:23;11.10;99.90
25918;DHT22;13899;51.174;4.456;2022-12-29T07:14:49;11.10;99.90
25918;DHT22;13899;51.174;4.456;2022-12-29T07:17:14;11.00;99.90
25918;DHT22;13899;51.174;4.456;2022-12-29T07:19:40;11.00;99.90
25918;DHT22;13899;51.174;4.456;2022-12-29T07:22:06;11.10;99.90
25918;DHT22;13899;51.174;4.456;2022-12-29T07:24:32;11.00;99.90
25918;DHT22;13899;51.174;4.456;2022-12-29T07:26:57;11.00;99.90
25918;DHT22;13899;51.174;4.456;2022-12-29T07:29:23;11.00;99.90
25918;DHT22;13899;51.174;4.456;2022-12-29T07:31:48;11.00;99.90
25918;DHT22;13899;51.174;4.456;2022-12-29T07:34:14;11.10;99.90
25918;DHT22;13899;51.174;4.456;2022-12-29T07:36:39;11.10;99.90
25918;DHT22;13899;51.174;4.456;2022-12-29T07:39:05;11.10;99.90
25918;DHT22;13899;51.174;4.456;2022-12-29T07:41:31;11.10;99.90
25918;DHT22;13899;51.174;4.456;2022-12-29T07:43:56;11.10;99.90
25918;DHT22;13899;51.174;4.456;2022-12-29T07:46:22;11.20;99.90
25918;DHT22;13899;51.174;4.456;2022-12-29T07:48:48;11.20;99.90
25918;DHT22;13899;51.174;4.456;2022-12-29T07:51:13;11.20;99.90
25918;DHT22;13899;51.174;4.456;2022-12-29T07:53:39;11.10;99.90
25918;DHT22;13899;51.174;4.456;2022-12-29T07:56:05;11.20;99.90
25918;DHT22;13899;51.174;4.456;2022-12-29T07:58:31;11.20;99.90
25918;DHT22;13899;51.174;4.456;2022-12-29T08:00:57;11.20;99.90
25918;DHT22;13899;51.174;4.456;2022-12-29T08:03:23;11.20;99.90
25918;DHT22;13899;51.174;4.456;2022-12-29T08:05:50;11.40;99.90
25918;DHT22;13899;51.174;4.456;2022-12-29T08:08:16;11.20;99.90
25918;DHT22;13899;51.174;4.456;2022-12-29T08:10:41;11.30;99.90
25918;DHT22;13899;51.174;4.456;2022-12-29T08:13:07;11.20;99.90
25918;DHT22;13899;51.174;4.456;2022-12-29T08:15:32;11.20;99.90
25918;DHT22;13899;51.174;4.456;2022-12-29T08:17:58;11.10;99.90
25918;DHT22;13899;51.174;4.456;2022-12-29T08:20:24;11.20;99.90
25918;DHT22;13899;51.174;4.456;2022-12-29T08:22:50;11.20;99.90
25918;DHT22;13899;51.174;4.456;2022-12-29T08:25:16;11.20;99.90
25918;DHT22;13899;51.174;4.456;2022-12-29T08:27:42;11.20;99.90
25918;DHT22;13899;51.174;4.456;2022-12-29T08:30:08;11.10;99.90
25918;DHT22;13899;51.174;4.456;2022-12-29T08:32:34;11.00;99.90
25918;DHT22;13899;51.174;4.456;2022-12-29T08:34:59;11.00;99.90
25918;DHT22;13899;51.174;4.456;2022-12-29T08:37:25;11.10;99.90
25918;DHT22;13899;51.174;4.456;2022-12-29T08:39:51;11.00;99.90
25918;DHT22;13899;51.174;4.456;2022-12-29T08:42:17;10.90;99.90
25918;DHT22;13899;51.174;4.456;2022-12-29T08:44:42;10.70;99.90
25918;DHT22;13899;51.174;4.456;2022-12-29T08:47:10;10.50;99.90
25918;DHT22;13899;51.174;4.456;2022-12-29T08:49:37;10.50;99.90
25918;DHT22;13899;51.174;4.456;2022-12-29T08:52:04;10.40;99.90
25918;DHT22;13899;51.174;4.456;2022-12-29T08:54:29;10.30;99.90
25918;DHT22;13899;51.174;4.456;2022-12-29T08:56:55;10.20;99.90
25918;DHT22;13899;51.174;4.456;2022-12-29T08:59:20;10.00;99.90
25918;DHT22;13899;51.174;4.456;2022-12-29T09:01:46;10.20;99.90
25918;DHT22;13899;51.174;4.456;2022-12-29T09:04:12;10.10;99.90
25918;DHT22;13899;51.174;4.456;2022-12-29T09:06:38;10.20;99.90
25918;DHT22;13899;51.174;4.456;2022-12-29T09:09:03;10.30;99.90
25918;DHT22;13899;51.174;4.456;2022-12-29T09:11:29;10.20;99.90
25918;DHT22;13899;51.174;4.456;2022-12-29T09:13:55;10.30;99.90
25918;DHT22;13899;51.174;4.456;2022-12-29T09:16:22;10.30;99.90
25918;DHT22;13899;51.174;4.456;2022-12-29T09:18:48;10.20;99.90
25918;DHT22;13899;51.174;4.456;2022-12-29T09:21:13;10.10;99.90
25918;DHT22;13899;51.174;4.456;2022-12-29T09:23:39;10.20;99.90
25918;DHT22;13899;51.174;4.456;2022-12-29T09:26:06;9.90;99.90
25918;DHT22;13899;51.174;4.456;2022-12-29T09:28:33;9.80;99.90
25918;DHT22;13899;51.174;4.456;2022-12-29T09:30:59;9.90;99.90
25918;DHT22;13899;51.174;4.456;2022-12-29T09:33:24;9.90;99.90
25918;DHT22;13899;51.174;4.456;2022-12-29T09:35:58;9.90;99.90
25918;DHT22;13899;51.174;4.456;2022-12-29T09:38:25;9.90;99.90
25918;DHT22;13899;51.174;4.456;2022-12-29T09:40:56;10.00;99.90
25918;DHT22;13899;51.174;4.456;2022-12-29T09:45:54;10.10;99.90
25918;DHT22;13899;51.174;4.456;2022-12-29T09:48:25;10.00;99.90
25918;DHT22;13899;51.174;4.456;2022-12-29T09:50:56;10.20;99.90
25918;DHT22;13899;51.174;4.456;2022-12-29T09:53:31;10.10;99.90
25918;DHT22;13899;51.174;4.456;2022-12-29T09:56:01;10.10;99.90
25918;DHT22;13899;51.174;4.456;2022-12-29T09:58:39;10.00;99.90
25918;DHT22;13899;51.174;4.456;2022-12-29T10:01:21;9.60;99.90
25918;DHT22;13899;51.174;4.456;2022-12-29T10:03:50;9.60;99.90
25918;DHT22;13899;51.174;4.456;2022-12-29T10:09:19;9.70;99.90
25918;DHT22;13899;51.174;4.456;2022-12-29T10:22:37;10.00;99.90
25918;DHT22;13899;51.174;4.456;2022-12-29T10:25:20;9.90;99.90
25918;DHT22;13899;51.174;4.456;2022-12-29T10:27:49;9.70;99.90
25918;DHT22;13899;51.174;4.456;2022-12-29T10:30:16;9.60;99.90
25918;DHT22;13899;51.174;4.456;2022-12-29T10:32:47;9.50;99.90
25918;DHT22;13899;51.174;4.456;2022-12-29T10:35:21;9.40;99.90
25918;DHT22;13899;51.174;4.456;2022-12-29T10:40:42;9.60;99.90
25918;DHT22;13899;51.174;4.456;2022-12-29T10:43:28;9.90;99.90
25918;DHT22;13899;51.174;4.456;2022-12-29T10:45:56;9.70;99.90
25918;DHT22;13899;51.174;4.456;2022-12-29T10:48:26;9.80;99.90
25918;DHT22;13899;51.174;4.456;2022-12-29T10:50:56;9.80;99.90
25918;DHT22;13899;51.174;4.456;2022-12-29T10:53:29;9.90;99.90
25918;DHT22;13899;51.174;4.456;2022-12-29T10:55:55;10.00;99.90
25918;DHT22;13899;51.174;4.456;2022-12-29T10:58:21;10.20;99.90
25918;DHT22;13899;51.174;4.456;2022-12-29T11:00:54;10.20;99.90
25918;DHT22;13899;51.174;4.456;2022-12-29T11:03:31;10.40;99.90
25918;DHT22;13899;51.174;4.456;2022-12-29T11:08:49;10.70;99.90
25918;DHT22;13899;51.174;4.456;2022-12-29T11:11:40;10.80;99.90
25918;DHT22;13899;51.174;4.456;2022-12-29T11:14:13;10.80;99.90
25918;DHT22;13899;51.174;4.456;2022-12-29T11:16:39;10.80;99.90
25918;DHT22;13899;51.174;4.456;2022-12-29T11:19:20;10.70;99.90
25918;DHT22;13899;51.174;4.456;2022-12-29T11:21:46;10.90;99.90
25918;DHT22;13899;51.174;4.456;2022-12-29T11:24:24;10.80;99.90
25918;DHT22;13899;51.174;4.456;2022-12-29T11:26:55;10.80;99.90
25918;DHT22;13899;51.174;4.456;2022-12-29T11:29:37;10.80;99.90
25918;DHT22;13899;51.174;4.456;2022-12-29T11:34:43;10.90;99.90
25918;DHT22;13899;51.174;4.456;2022-12-29T11:37:18;10.80;99.90
25918;DHT22;13899;51.174;4.456;2022-12-29T11:42:48;10.90;99.90
25918;DHT22;13899;51.174;4.456;2022-12-29T11:45:18;10.90;99.90
25918;DHT22;13899;51.174;4.456;2022-12-29T11:47:50;10.90;99.90
25918;DHT22;13899;51.174;4.456;2022-12-29T11:50:37;10.90;99.90
25918;DHT22;13899;51.174;4.456;2022-12-29T11:55:31;10.90;99.90
25918;DHT22;13899;51.174;4.456;2022-12-29T11:57:58;11.00;99.90
25918;DHT22;13899;51.174;4.456;2022-12-29T12:00:28;10.90;99.90
25918;DHT22;13899;51.174;4.456;2022-12-29T12:05:26;10.90;99.90
25918;DHT22;13899;51.174;4.456;2022-12-29T12:08:15;10.90;99.90
25918;DHT22;13899;51.174;4.456;2022-12-29T12:10:46;10.90;99.90
25918;DHT22;13899;51.174;4.456;2022-12-29T12:13:32;11.00;99.90
25918;DHT22;13899;51.174;4.456;2022-12-29T12:16:14;10.90;99.90
25918;DHT22;13899;51.174;4.456;2022-12-29T12:18:52;11.00;99.90
25918;DHT22;13899;51.174;4.456;2022-12-29T12:21:27;10.90;99.90
25918;DHT22;13899;51.174;4.456;2022-12-29T12:30:02;10.60;99.90
25918;DHT22;13899;51.174;4.456;2022-12-29T12:34:54;9.90;99.90
25918;DHT22;13899;51.174;4.456;2022-12-29T12:40:18;9.40;99.90
25918;DHT22;13899;51.174;4.456;2022-12-29T12:51:33;9.20;99.90
25918;DHT22;13899;51.174;4.456;2022-12-29T12:59:46;9.30;99.90
25918;DHT22;13899;51.174;4.456;2022-12-29T13:07:59;9.40;99.90
25918;DHT22;13899;51.174;4.456;2022-12-29T13:10:45;9.50;99.90
25918;DHT22;13899;51.174;4.456;2022-12-29T13:18:57;9.90;99.90
25918;DHT22;13899;51.174;4.456;2022-12-29T13:30:12;10.00;99.90
25918;DHT22;13899;51.174;4.456;2022-12-29T13:33:21;10.00;99.90
25918;DHT22;13899;51.174;4.456;2022-12-29T13:36:22;9.90;99.90
25918;DHT22;13899;51.174;4.456;2022-12-29T13:38:59;9.80;99.90
25918;DHT22;13899;51.174;4.456;2022-12-29T13:41:33;9.60;99.90
25918;DHT22;13899;51.174;4.456;2022-12-29T13:44:02;9.40;99.90
25918;DHT22;13899;51.174;4.456;2022-12-29T13:46:33;9.60;99.90
25918;DHT22;13899;51.174;4.456;2022-12-29T13:49:08;9.70;99.90
25918;DHT22;13899;51.174;4.456;2022-12-29T13:51:43;9.60;99.90
25918;DHT22;13899;51.174;4.456;2022-12-29T13:54:39;9.60;99.90
25918;DHT22;13899;51.174;4.456;2022-12-29T14:00:02;9.60;99.90
25918;DHT22;13899;51.174;4.456;2022-12-29T14:05:30;9.60;99.90
25918;DHT22;13899;51.174;4.456;2022-12-29T14:08:02;9.60;99.90
25918;DHT22;13899;51.174;4.456;2022-12-29T14:10:37;9.60;99.90
25918;DHT22;13899;51.174;4.456;2022-12-29T14:13:17;9.50;99.90
25918;DHT22;13899;51.174;4.456;2022-12-29T14:15:45;9.60;99.90
25918;DHT22;13899;51.174;4.456;2022-12-29T14:18:24;9.40;99.90
25918;DHT22;13899;51.174;4.456;2022-12-29T14:20:55;9.40;99.90
25918;DHT22;13899;51.174;4.456;2022-12-29T14:28:34;9.20;99.90
25918;DHT22;13899;51.174;4.456;2022-12-29T14:31:02;9.20;99.90
25918;DHT22;13899;51.174;4.456;2022-12-29T14:33:31;9.20;99.90
25918;DHT22;13899;51.174;4.456;2022-12-29T14:36:18;9.20;99.90
25918;DHT22;13899;51.174;4.456;2022-12-29T14:38:45;9.20;99.90
25918;DHT22;13899;51.174;4.456;2022-12-29T14:41:28;9.40;99.90
25918;DHT22;13899;51.174;4.456;2022-12-29T14:49:21;9.10;99.90
25918;DHT22;13899;51.174;4.456;2022-12-29T14:51:50;9.20;99.90
25918;DHT22;13899;51.174;4.456;2022-12-29T14:57:04;9.00;99.90
25918;DHT22;13899;51.174;4.456;2022-12-29T14:59:32;9.00;99.90
25918;DHT22;13899;51.174;4.456;2022-12-29T15:02:01;8.90;99.90
25918;DHT22;13899;51.174;4.456;2022-12-29T15:04:32;8.90;99.90
25918;DHT22;13899;51.174;4.456;2022-12-29T15:07:00;8.90;99.90
25918;DHT22;13899;51.174;4.456;2022-12-29T15:09:35;8.90;99.90
25918;DHT22;13899;51.174;4.456;2022-12-29T15:14:56;8.90;99.90
25918;DHT22;13899;51.174;4.456;2022-12-29T15:17:33;8.90;99.90
25918;DHT22;13899;51.174;4.456;2022-12-29T15:20:14;8.90;99.90
25918;DHT22;13899;51.174;4.456;2022-12-29T15:22:55;8.80;99.90
25918;DHT22;13899;51.174;4.456;2022-12-29T15:25:21;8.80;99.90
25918;DHT22;13899;51.174;4.456;2022-12-29T15:28:01;8.80;99.90
25918;DHT22;13899;51.174;4.456;2022-12-29T15:30:27;8.70;99.90
25918;DHT22;13899;51.174;4.456;2022-12-29T15:32:53;8.70;99.90
25918;DHT22;13899;51.174;4.456;2022-12-29T15:37:55;8.70;99.90
25918;DHT22;13899;51.174;4.456;2022-12-29T15:40:30;8.80;99.90
25918;DHT22;13899;51.174;4.456;2022-12-29T15:43:21;8.70;99.90
25918;DHT22;13899;51.174;4.456;2022-12-29T15:45:49;8.70;99.90
25918;DHT22;13899;51.174;4.456;2022-12-29T15:48:21;8.70;99.90
25918;DHT22;13899;51.174;4.456;2022-12-29T15:50:48;8.90;99.90
25918;DHT22;13899;51.174;4.456;2022-12-29T15:53:26;8.80;99.90
25918;DHT22;13899;51.174;4.456;2022-12-29T15:55:57;8.90;99.90
25918;DHT22;13899;51.174;4.456;2022-12-29T15:58:29;8.90;99.90
25918;DHT22;13899;51.174;4.456;2022-12-29T16:00:57;8.90;99.90
25918;DHT22;13899;51.174;4.456;2022-12-29T16:03:25;9.10;99.90
25918;DHT22;13899;51.174;4.456;2022-12-29T16:05:57;9.00;99.90
25918;DHT22;13899;51.174;4.456;2022-12-29T16:08:35;8.90;99.90
25918;DHT22;13899;51.174;4.456;2022-12-29T16:11:24;9.00;99.90
25918;DHT22;13899;51.174;4.456;2022-12-29T16:13:53;9.00;99.90
25918;DHT22;13899;51.174;4.456;2022-12-29T16:16:35;9.00;99.90
25918;DHT22;13899;51.174;4.456;2022-12-29T16:19:05;9.00;99.90
25918;DHT22;13899;51.174;4.456;2022-12-29T16:21:35;9.00;99.90
25918;DHT22;13899;51.174;4.456;2022-12-29T16:24:05;9.00;99.90
25918;DHT22;13899;51.174;4.456;2022-12-29T16:26:32;9.00;99.90
25918;DHT22;13899;51.174;4.456;2022-12-29T16:29:00;9.00;99.90
25918;DHT22;13899;51.174;4.456;2022-12-29T16:32:02;9.00;99.90
25918;DHT22;13899;51.174;4.456;2022-12-29T16:37:05;8.80;99.90
25918;DHT22;13899;51.174;4.456;2022-12-29T16:39:34;8.90;99.90
25918;DHT22;13899;51.174;4.456;2022-12-29T16:42:00;8.80;99.90
25918;DHT22;13899;51.174;4.456;2022-12-29T16:44:28;8.70;99.90
25918;DHT22;13899;51.174;4.456;2022-12-29T16:49:36;8.70;99.90
25918;DHT22;13899;51.174;4.456;2022-12-29T16:52:33;8.60;99.90
25918;DHT22;13899;51.174;4.456;2022-12-29T16:54:59;8.60;99.90
25918;DHT22;13899;51.174;4.456;2022-12-29T16:57:33;8.60;99.90
25918;DHT22;13899;51.174;4.456;2022-12-29T17:00:05;8.60;99.90
25918;DHT22;13899;51.174;4.456;2022-12-29T17:02:32;8.50;99.90
25918;DHT22;13899;51.174;4.456;2022-12-29T17:04:58;8.60;99.90
25918;DHT22;13899;51.174;4.456;2022-12-29T17:07:26;8.50;99.90
25918;DHT22;13899;51.174;4.456;2022-12-29T17:09:52;8.50;99.90
25918;DHT22;13899;51.174;4.456;2022-12-29T17:12:26;8.50;99.90
25918;DHT22;13899;51.174;4.456;2022-12-29T17:14:59;8.50;99.90
25918;DHT22;13899;51.174;4.456;2022-12-29T17:17:46;8.50;99.90
25918;DHT22;13899;51.174;4.456;2022-12-29T17:22:42;8.40;99.90
25918;DHT22;13899;51.174;4.456;2022-12-29T17:25:15;8.50;99.90
25918;DHT22;13899;51.174;4.456;2022-12-29T17:27:51;8.40;99.90
25918;DHT22;13899;51.174;4.456;2022-12-29T17:30:23;8.50;99.90
25918;DHT22;13899;51.174;4.456;2022-12-29T17:33:05;8.60;99.90
25918;DHT22;13899;51.174;4.456;2022-12-29T17:35:33;8.40;99.90
25918;DHT22;13899;51.174;4.456;2022-12-29T17:37:59;8.40;99.90
25918;DHT22;13899;51.174;4.456;2022-12-29T17:40:31;8.40;99.90
25918;DHT22;13899;51.174;4.456;2022-12-29T17:42:58;8.40;99.90
25918;DHT22;13899;51.174;4.456;2022-12-29T17:45:31;8.30;99.90
25918;DHT22;13899;51.174;4.456;2022-12-29T17:47:58;8.30;99.90
25918;DHT22;13899;51.174;4.456;2022-12-29T17:50:27;8.40;99.90
25918;DHT22;13899;51.174;4.456;2022-12-29T17:53:05;8.50;99.90
25918;DHT22;13899;51.174;4.456;2022-12-29T17:55:32;8.40;99.90
25918;DHT22;13899;51.174;4.456;2022-12-29T17:57:58;8.30;99.90
25918;DHT22;13899;51.174;4.456;2022-12-29T18:00:26;8.30;99.90
25918;DHT22;13899;51.174;4.456;2022-12-29T18:02:53;8.20;99.90
25918;DHT22;13899;51.174;4.456;2022-12-29T18:05:22;8.30;99.90
25918;DHT22;13899;51.174;4.456;2022-12-29T18:07:53;8.20;99.90
25918;DHT22;13899;51.174;4.456;2022-12-29T18:10:24;8.20;99.90
25918;DHT22;13899;51.174;4.456;2022-12-29T18:12:51;8.20;99.90
25918;DHT22;13899;51.174;4.456;2022-12-29T18:15:21;8.20;99.90
25918;DHT22;13899;51.174;4.456;2022-12-29T18:17:48;8.30;99.90
25918;DHT22;13899;51.174;4.456;2022-12-29T18:20:14;8.20;99.90